Time;durP1;ratioP1;P1;durP2;ratioP2;P2;SDS_P1;SDS_P2;PMS_P1;PMS_P2;Temp;Humidity;BMP_temperature;BMP_pressure;BME280_temperature;BME280_humidity;BME280_pressure;Samples;Min_cycle;Max_cycle;Signal;HPM_P1;HPM_P2
2022/10/10 04:10:26;;;;;;;5.35;2.40;;;;;;;12.54;62.24;101443.91;5611924;31;84333;-57
2022/10/10 04:13:29;;;;;;;4.85;2.55;;;;;;;12.54;62.24;101443.91;5602499;31;34262;-57
2022/10/10 04:16:31;;;;;;;5.70;2.65;;;;;;;12.09;62.48;101440.06;5600487;31;34125;-58
2022/10/10 04:19:33;;;;;;;4.90;2.60;;;;;;;12.08;62.49;101443.78;5603477;31;33208;-58
2022/10/10 04:22:36;;;;;;;5.45;2.67;;;;;;;12.04;62.37;101447.28;5598982;31;33762;-57
2022/10/10 04:25:38;;;;;;;6.18;2.65;;;;;;;12.14;62.52;101447.31;5600497;31;34259;-58
2022/10/10 04:28:40;;;;;;;5.32;2.37;;;;;;;12.20;62.50;101440.87;5602156;31;34218;-58
2022/10/10 04:31:42;;;;;;;6.72;2.72;;;;;;;12.26;61.62;101434.47;5600160;31;34358;-58
2022/10/10 04:34:44;;;;;;;6.03;2.85;;;;;;;12.21;62.06;101437.91;5590877;31;34299;-58
2022/10/10 04:37:47;;;;;;;4.68;2.30;;;;;;;12.32;62.24;101433.41;5582863;31;33239;-58
2022/10/10 04:40:49;;;;;;;4.68;2.42;;;;;;;12.34;61.08;101443.87;5583372;32;33691;-58
2022/10/10 04:43:52;;;;;;;5.10;2.75;;;;;;;12.29;62.25;101441.19;5581954;31;33770;-55
2022/10/10 04:46:54;;;;;;;4.28;2.50;;;;;;;12.26;61.86;101444.41;5582981;32;34356;-55
2022/10/10 04:49:56;;;;;;;5.50;2.62;;;;;;;12.17;61.64;101447.59;5588403;31;34288;-55
2022/10/10 04:52:58;;;;;;;5.93;2.75;;;;;;;12.18;62.14;101451.88;5586939;31;33996;-55
2022/10/10 04:56:00;;;;;;;5.60;2.60;;;;;;;12.21;62.32;101447.88;5580447;31;33758;-55
2022/10/10 04:59:02;;;;;;;5.43;3.40;;;;;;;12.22;62.53;101452.19;5582645;31;34382;-55
2022/10/10 05:02:06;;;;;;;12.60;3.55;;;;;;;12.23;62.78;101457.28;5579734;31;33596;-55
2022/10/10 05:05:08;;;;;;;5.85;3.00;;;;;;;12.04;63.37;101461.53;5581325;31;33966;-55
2022/10/10 05:08:11;;;;;;;18.30;3.33;;;;;;;12.03;63.29;101451.84;5582057;31;33657;-55
2022/10/10 05:11:13;;;;;;;9.50;2.85;;;;;;;12.07;63.46;101457.50;5586202;31;33743;-55
2022/10/10 05:14:15;;;;;;;18.90;2.92;;;;;;;12.18;63.07;101449.19;5576413;31;34273;-55
2022/10/10 05:17:18;;;;;;;36.17;3.90;;;;;;;12.14;63.12;101450.81;5586963;31;33608;-55
2022/10/10 05:20:20;;;;;;;3.83;2.62;;;;;;;12.29;62.82;101447.37;5575981;31;33973;-55
2022/10/10 05:23:23;;;;;;;6.65;2.58;;;;;;;12.12;63.73;101452.12;5580707;31;33620;-55
2022/10/10 05:26:25;;;;;;;36.08;3.90;;;;;;;12.04;64.13;101445.41;5576166;31;33807;-56
2022/10/10 05:29:28;;;;;;;113.32;9.05;;;;;;;12.15;63.19;101454.31;5571851;31;34275;-55
2022/10/10 05:32:30;;;;;;;103.18;7.20;;;;;;;12.20;61.99;101452.44;5576020;31;33604;-55
2022/10/10 05:35:32;;;;;;;16.50;3.83;;;;;;;12.35;62.18;101464.31;5583069;31;33398;-55
2022/10/10 05:38:34;;;;;;;7.60;3.50;;;;;;;12.39;62.56;101460.03;5580593;31;33423;-55
2022/10/10 05:41:36;;;;;;;396.73;24.77;;;;;;;12.36;61.72;101456.00;5582339;31;33691;-55
2022/10/10 05:44:39;;;;;;;10.68;3.05;;;;;;;12.46;60.94;101468.66;5569775;31;34317;-55
2022/10/10 05:47:41;;;;;;;25.92;3.67;;;;;;;12.54;59.87;101461.94;5569101;31;33679;-55
2022/10/10 05:50:53;;;;;;;10.18;3.30;;;;;;;12.57;60.97;101469.47;5569785;31;33762;-55
2022/10/10 05:53:56;;;;;;;8.13;3.15;;;;;;;12.67;59.65;101467.59;5582876;31;34301;-55
2022/10/10 05:56:58;;;;;;;6.90;2.80;;;;;;;12.74;61.69;101467.34;5584115;31;34300;-55
2022/10/10 06:00:01;;;;;;;23.20;4.37;;;;;;;12.73;61.38;101473.00;5568090;32;33665;-55
2022/10/10 06:03:05;;;;;;;10.55;3.30;;;;;;;12.96;59.14;101467.09;5554637;31;34148;-55
2022/10/10 06:06:08;;;;;;;13.48;3.20;;;;;;;13.02;59.63;101471.37;5584050;31;33712;-56
2022/10/10 06:09:10;;;;;;;81.18;7.62;;;;;;;13.00;59.99;101470.03;5577053;31;34421;-56
2022/10/10 06:12:12;;;;;;;7.43;2.87;;;;;;;12.92;59.56;101472.19;5584827;31;33265;-55
2022/10/10 06:15:14;;;;;;;9.05;3.28;;;;;;;12.97;61.06;101478.66;5569088;31;33593;-55
2022/10/10 06:18:16;;;;;;;10.60;3.50;;;;;;;13.04;59.77;101471.91;5567795;32;33728;-55
2022/10/10 06:21:19;;;;;;;9.63;2.87;;;;;;;13.11;57.92;101472.47;5567966;32;33861;-55
2022/10/10 06:24:21;;;;;;;13.80;3.50;;;;;;;13.20;56.98;101459.25;5566625;31;33656;-55
2022/10/10 06:27:23;;;;;;;14.15;3.60;;;;;;;13.24;57.62;101448.75;5567336;31;33665;-55
2022/10/10 06:30:26;;;;;;;5.95;2.97;;;;;;;13.32;58.16;101461.69;5563606;31;33602;-55
2022/10/10 06:33:28;;;;;;;10.60;3.05;;;;;;;13.32;57.38;101459.00;5572475;31;33652;-55
2022/10/10 06:36:31;;;;;;;7.78;2.90;;;;;;;13.42;56.12;101459.00;5561292;31;33522;-55
2022/10/10 06:39:33;;;;;;;6.95;2.67;;;;;;;13.49;54.75;101466.78;5575028;31;33978;-55
2022/10/10 06:42:35;;;;;;;10.50;3.28;;;;;;;13.57;55.33;101464.31;5565962;32;34652;-55
2022/10/10 06:45:44;;;;;;;9.18;2.85;;;;;;;13.59;55.87;101464.88;5568068;31;34362;-55
2022/10/10 06:48:46;;;;;;;11.07;3.30;;;;;;;13.56;55.10;101465.41;5581931;31;33612;-55
2022/10/10 06:51:48;;;;;;;3.87;2.60;;;;;;;13.62;56.72;101461.63;5569602;31;33766;-56
2022/10/10 06:54:51;;;;;;;27.85;3.53;;;;;;;13.66;53.99;101464.59;5566621;31;33593;-55
2022/10/10 06:57:53;;;;;;;3.83;2.72;;;;;;;13.63;54.78;101465.94;5580676;31;34218;-55
2022/10/10 07:01:01;;;;;;;18.10;3.17;;;;;;;13.65;54.61;101470.25;5574477;31;33835;-55
2022/10/10 07:04:04;;;;;;;4.80;2.85;;;;;;;13.74;52.75;101457.81;5580032;31;33604;-55
2022/10/10 07:07:06;;;;;;;31.45;4.20;;;;;;;13.74;54.11;101458.66;5572873;31;33618;-55
2022/10/10 07:10:11;;;;;;;6.35;2.53;;;;;;;13.84;54.48;101455.06;5580004;31;33657;-55
2022/10/10 07:13:14;;;;;;;10.63;3.30;;;;;;;13.84;53.46;101449.69;5568012;32;33577;-55
2022/10/10 07:16:16;;;;;;;7.68;2.50;;;;;;;13.89;53.79;101449.69;5567484;32;33601;-55
2022/10/10 07:19:20;;;;;;;11.02;3.12;;;;;;;13.81;53.67;101453.75;5567706;32;34321;-55
2022/10/10 07:22:22;;;;;;;6.40;3.15;;;;;;;13.90;53.62;101455.88;5579857;31;33718;-55
2022/10/10 07:25:25;;;;;;;7.25;3.22;;;;;;;13.99;53.70;101463.09;5584356;31;34423;-55
2022/10/10 07:28:27;;;;;;;11.35;3.37;;;;;;;14.00;52.88;101467.41;5587825;31;33317;-55
2022/10/10 07:31:30;;;;;;;8.02;3.25;;;;;;;13.79;54.74;101461.31;5579170;31;33930;-55
2022/10/10 07:34:34;;;;;;;12.30;3.60;;;;;;;13.91;54.22;101461.00;5579380;31;34406;-55
2022/10/10 07:37:37;;;;;;;9.30;3.22;;;;;;;14.04;53.93;101463.09;5581406;31;33552;-55
2022/10/10 07:40:40;;;;;;;5.25;3.35;;;;;;;14.03;53.46;101466.06;5583827;31;34243;-55
2022/10/10 07:43:42;;;;;;;8.75;3.30;;;;;;;14.05;53.13;101464.72;5566891;32;33805;-55
2022/10/10 07:46:45;;;;;;;8.38;3.28;;;;;;;14.18;53.07;101460.59;5573777;31;33653;-55
2022/10/10 07:49:47;;;;;;;12.73;4.18;;;;;;;13.99;54.59;101454.22;5581232;31;34169;-55
2022/10/10 07:52:49;;;;;;;12.13;3.62;;;;;;;14.19;53.51;101456.81;5569949;31;33626;-55
2022/10/10 07:55:52;;;;;;;11.00;3.97;;;;;;;14.16;54.68;101454.66;5564055;32;34457;-55
2022/10/10 07:58:54;;;;;;;9.27;3.33;;;;;;;14.27;54.01;101455.41;5567840;32;33685;-58
2022/10/10 08:01:57;;;;;;;8.15;3.40;;;;;;;14.33;54.18;101454.31;5566854;32;33571;-58
2022/10/10 08:05:00;;;;;;;7.70;3.40;;;;;;;14.48;53.66;101456.91;5566508;32;34226;-58
2022/10/10 08:08:02;;;;;;;8.93;2.87;;;;;;;14.42;52.48;101452.62;5578961;31;33948;-58
2022/10/10 08:11:06;;;;;;;11.07;3.15;;;;;;;14.40;52.11;101454.78;5553210;31;33903;-58
2022/10/10 08:14:08;;;;;;;8.48;2.67;;;;;;;14.44;52.47;101461.28;5565619;32;33610;-58
2022/10/10 08:17:11;;;;;;;4.10;2.00;;;;;;;14.59;51.96;101454.19;5565049;32;33661;-55
2022/10/10 08:20:13;;;;;;;6.93;2.15;;;;;;;14.57;50.73;101452.56;5565614;32;33872;-55
2022/10/10 08:23:15;;;;;;;8.55;2.72;;;;;;;14.59;50.21;101446.87;5568500;31;34189;-55
2022/10/10 08:26:20;;;;;;;5.80;1.90;;;;;;;14.54;52.21;101442.34;5565542;32;33567;-55
2022/10/10 08:29:23;;;;;;;6.15;2.00;;;;;;;14.58;52.50;101437.19;5553886;32;34011;-55
2022/10/10 08:32:25;;;;;;;16.50;2.62;;;;;;;14.74;50.84;101440.59;5565418;31;33817;-55
2022/10/10 08:35:27;;;;;;;3.22;1.85;;;;;;;14.89;49.68;101442.34;5563317;31;33570;-55
2022/10/10 08:38:29;;;;;;;4.37;1.70;;;;;;;14.89;48.74;101443.13;5575789;31;34218;-55
2022/10/10 08:41:46;;;;;;;27.00;3.00;;;;;;;14.96;49.69;101434.72;5569129;31;33767;-55
2022/10/10 08:44:54;;;;;;;6.68;2.10;;;;;;;15.03;50.00;101430.63;5562742;32;33798;-55
2022/10/10 08:48:06;;;;;;;7.45;2.70;;;;;;;15.09;50.38;101430.53;5563579;32;34298;-55
2022/10/10 08:51:13;;;;;;;4.75;1.98;;;;;;;15.21;48.98;101422.88;5556459;32;33582;-55
2022/10/10 08:54:16;;;;;;;7.12;2.15;;;;;;;15.18;48.71;101420.75;5567841;31;33618;-55
2022/10/10 08:57:28;;;;;;;5.68;2.05;;;;;;;15.23;50.04;101423.37;5568999;31;33864;-55
2022/10/10 09:00:37;;;;;;;6.97;2.53;;;;;;;15.21;48.48;101412.87;5580833;31;33814;-55
2022/10/10 09:03:46;;;;;;;6.20;2.42;;;;;;;15.34;48.28;101411.41;5573014;31;33652;-55
2022/10/10 09:07:04;;;;;;;6.28;2.10;;;;;;;15.36;48.43;101413.78;5567941;31;33956;-55
2022/10/10 09:10:19;;;;;;;3.70;2.05;;;;;;;15.38;48.55;101411.62;5566912;31;33109;-55
2022/10/10 09:13:32;;;;;;;5.55;1.98;;;;;;;15.21;47.78;101402.06;5563078;31;33653;-55
2022/10/10 09:16:59;;;;;;;4.05;2.12;;;;;;;15.37;48.23;101410.81;5567605;31;34305;-55
2022/10/10 09:20:31;;;;;;;4.60;2.05;;;;;;;15.34;47.21;101408.69;5565162;31;33770;-55
2022/10/10 09:23:58;;;;;;;7.62;2.20;;;;;;;15.41;47.49;101409.16;5566014;32;34371;-55
2022/10/10 09:27:03;;;;;;;9.55;2.20;;;;;;;15.43;48.37;101406.16;5565392;31;34319;-55
2022/10/10 09:30:16;;;;;;;3.78;2.15;;;;;;;15.47;47.36;101399.91;5566552;32;33648;-55
2022/10/10 09:33:34;;;;;;;9.20;2.25;;;;;;;15.58;47.91;101402.47;5569067;31;33576;-55
2022/10/10 09:36:36;;;;;;;6.15;1.98;;;;;;;15.60;48.49;101403.00;5570218;31;33642;-55
2022/10/10 09:39:49;;;;;;;4.78;2.08;;;;;;;15.65;46.54;101395.63;5567178;32;34326;-55
2022/10/10 09:42:52;;;;;;;9.38;2.20;;;;;;;15.56;49.21;101397.34;5556864;31;33932;-56
2022/10/10 09:45:57;;;;;;;5.12;1.87;;;;;;;15.75;47.46;101392.00;5572949;31;34400;-55
2022/10/10 09:49:00;;;;;;;5.40;1.90;;;;;;;15.80;48.15;101396.56;5564474;32;33791;-56
2022/10/10 09:52:24;;;;;;;4.47;2.00;;;;;;;15.84;47.37;101395.69;5570297;31;33692;-55
2022/10/10 09:55:32;;;;;;;4.05;1.87;;;;;;;15.91;46.77;101396.13;5569155;31;33775;-55
2022/10/10 09:58:43;;;;;;;4.10;2.05;;;;;;;15.89;46.91;101389.41;5570072;31;33707;-55
2022/10/10 10:02:01;;;;;;;2.97;1.83;;;;;;;15.92;46.13;101391.53;5568092;32;33757;-55
2022/10/10 10:05:17;;;;;;;4.07;2.10;;;;;;;15.90;45.66;101391.81;5566134;31;33752;-55
2022/10/10 10:08:25;;;;;;;5.07;2.40;;;;;;;15.87;45.75;101381.59;5563824;32;33950;-55
2022/10/10 10:11:36;;;;;;;6.70;2.00;;;;;;;15.90;46.28;101389.13;5567459;31;33004;-55
2022/10/10 10:14:39;;;;;;;5.53;2.00;;;;;;;16.03;45.71;101382.19;5564895;31;33935;-56
2022/10/10 10:17:42;;;;;;;3.80;1.85;;;;;;;15.96;46.54;101381.75;5565359;31;33656;-56
2022/10/10 10:20:49;;;;;;;6.40;2.00;;;;;;;16.03;45.68;101378.69;5574710;31;33773;-55
2022/10/10 10:23:59;;;;;;;9.40;2.30;;;;;;;16.11;45.60;101378.81;5566480;31;33672;-55
2022/10/10 10:27:17;;;;;;;9.80;2.37;;;;;;;16.27;46.24;101382.09;5570234;31;33690;-56
2022/10/10 10:30:24;;;;;;;8.77;2.22;;;;;;;16.34;45.95;101370.91;5574636;31;33313;-55
2022/10/10 10:33:52;;;;;;;9.30;1.90;;;;;;;16.33;45.16;101372.00;5567579;31;33721;-55
2022/10/10 10:37:17;;;;;;;6.07;1.80;;;;;;;16.40;45.32;101365.13;5568091;31;33768;-55
2022/10/10 10:40:31;;;;;;;5.97;2.30;;;;;;;16.42;45.70;101352.09;5563231;32;33752;-56
2022/10/10 10:43:52;;;;;;;4.40;1.90;;;;;;;16.45;44.76;101345.28;5567000;32;34339;-56
2022/10/10 10:47:13;;;;;;;3.53;1.70;;;;;;;16.43;45.07;101342.09;5557048;32;33363;-55
2022/10/10 10:50:31;;;;;;;5.35;2.20;;;;;;;16.55;46.11;101338.87;5565547;32;33708;-55
2022/10/10 10:53:54;;;;;;;5.50;1.98;;;;;;;16.60;46.14;101338.81;5563057;32;34525;-55
2022/10/10 10:57:42;;;;;;;7.03;2.22;;;;;;;16.72;43.67;101330.19;5560433;31;34391;-56
2022/10/10 11:01:28;;;;;;;4.82;2.10;;;;;;;16.71;43.37;101326.69;5562594;32;33363;-56
2022/10/10 11:05:08;;;;;;;3.58;1.73;;;;;;;16.77;44.66;101320.12;5562678;31;34263;-56
2022/10/10 11:08:43;;;;;;;6.43;2.15;;;;;;;16.83;43.18;101323.56;5573111;31;33665;-56
2022/10/10 11:12:13;;;;;;;4.15;1.70;;;;;;;16.85;45.25;101324.87;5564770;32;33319;-55
2022/10/10 11:15:15;;;;;;;3.65;1.90;;;;;;;16.91;43.88;101315.50;5567190;31;33418;-56
2022/10/10 11:18:34;;;;;;;4.62;2.00;;;;;;;16.99;42.13;101311.31;5565345;31;33725;-56
2022/10/10 11:21:52;;;;;;;9.48;1.83;;;;;;;17.07;42.60;101307.09;5572181;31;34261;-55
2022/10/10 11:25:20;;;;;;;9.55;1.80;;;;;;;17.13;42.54;101311.31;5568460;31;33485;-55
2022/10/10 11:28:34;;;;;;;6.40;1.90;;;;;;;17.24;41.14;101295.66;5568428;31;33781;-55
2022/10/10 11:31:59;;;;;;;8.23;2.28;;;;;;;17.14;42.29;101294.75;5565644;32;33732;-55
2022/10/10 11:35:18;;;;;;;6.47;2.15;;;;;;;17.18;43.84;101292.25;5559629;32;34847;-55
2022/10/10 11:38:52;;;;;;;8.27;2.25;;;;;;;17.17;42.77;101281.72;5564369;31;34423;-56
2022/10/10 11:42:05;;;;;;;4.57;1.90;;;;;;;17.28;42.78;101277.69;5555435;32;33752;-55
2022/10/10 11:45:23;;;;;;;4.90;1.70;;;;;;;17.25;40.80;101273.69;5548372;32;34322;-56
2022/10/10 11:48:40;;;;;;;4.32;2.08;;;;;;;17.35;40.86;101278.06;5566122;32;34445;-56
2022/10/10 11:52:02;;;;;;;8.00;2.00;;;;;;;17.31;40.86;101271.66;5566372;31;34433;-58
2022/10/10 11:55:32;;;;;;;2.60;1.62;;;;;;;17.33;41.87;101266.75;5567336;32;33308;-58
2022/10/10 11:58:43;;;;;;;3.87;1.90;;;;;;;17.33;41.51;101266.75;5567352;32;34382;-58
2022/10/10 12:01:50;;;;;;;6.90;2.15;;;;;;;17.30;42.58;101265.44;5567524;32;33422;-58
2022/10/10 12:04:53;;;;;;;3.72;1.98;;;;;;;17.36;42.43;101253.38;5564119;32;33183;-58
2022/10/10 12:07:55;;;;;;;18.08;2.58;;;;;;;17.41;41.50;101257.88;5548987;32;33788;-58
2022/10/10 12:11:08;;;;;;;20.25;2.37;;;;;;;17.38;40.60;101248.47;5567082;32;34453;-58
2022/10/10 12:14:16;;;;;;;20.05;3.30;;;;;;;17.48;39.06;101247.44;5566802;32;34315;-58
2022/10/10 12:17:31;;;;;;;4.20;1.73;;;;;;;17.50;39.74;101247.94;5564578;32;33905;-58
2022/10/10 12:20:35;;;;;;;5.15;1.50;;;;;;;17.46;39.98;101238.00;5567397;32;33682;-58
2022/10/10 12:23:39;;;;;;;4.10;1.70;;;;;;;17.47;38.96;101234.19;5567422;32;33660;-58
2022/10/10 12:26:54;;;;;;;3.28;1.60;;;;;;;17.49;39.05;101237.41;5565719;32;33456;-58
2022/10/10 12:29:56;;;;;;;8.05;1.80;;;;;;;17.52;38.98;101234.88;5563113;32;33883;-58
2022/10/10 12:32:58;;;;;;;4.25;1.60;;;;;;;17.58;38.52;101228.25;5566797;32;34008;-58
2022/10/10 12:36:19;;;;;;;3.75;1.70;;;;;;;17.61;39.34;101226.81;5567503;32;34341;-58
2022/10/10 12:39:24;;;;;;;2.95;1.58;;;;;;;17.66;38.07;101225.91;5568633;32;33690;-58
2022/10/10 12:42:29;;;;;;;10.23;2.13;;;;;;;17.69;38.79;101226.09;5567704;32;33607;-58
2022/10/10 12:45:31;;;;;;;4.47;1.60;;;;;;;17.65;40.72;101219.69;5568670;32;33791;-58
2022/10/10 12:48:35;;;;;;;4.82;1.73;;;;;;;17.68;38.74;101224.50;5569810;32;34426;-58
2022/10/10 12:51:38;;;;;;;4.15;1.80;;;;;;;17.70;39.66;101221.47;5569091;32;34273;-58
2022/10/10 12:54:43;;;;;;;5.37;1.50;;;;;;;17.81;39.19;101231.81;5568416;32;33632;-58
2022/10/10 12:57:48;;;;;;;3.73;1.63;;;;;;;17.86;40.57;101220.03;5568732;32;33819;-58
2022/10/10 13:00:51;;;;;;;5.77;1.53;;;;;;;17.96;37.37;101219.75;5570232;32;33698;-58
2022/10/10 13:03:55;;;;;;;8.48;2.05;;;;;;;17.93;39.30;101214.94;5570169;32;33493;-58
2022/10/10 13:07:00;;;;;;;5.28;1.65;;;;;;;17.93;39.22;101209.53;5570021;32;34104;-58
2022/10/10 13:10:17;;;;;;;3.00;2.10;;;;;;;17.92;39.99;101207.94;5569909;32;34403;-58
2022/10/10 13:13:20;;;;;;;6.20;2.00;;;;;;;17.87;39.45;101208.03;5570235;32;33672;-58
2022/10/10 13:16:27;;;;;;;4.45;1.80;;;;;;;17.90;37.31;101198.50;5569681;32;33672;-58
2022/10/10 13:19:40;;;;;;;6.22;1.73;;;;;;;17.91;39.80;101194.66;5570133;31;33670;-58
2022/10/10 13:22:42;;;;;;;10.90;1.52;;;;;;;17.87;38.91;101189.06;5569936;32;34346;-59
2022/10/10 13:25:48;;;;;;;;;;;;;;;17.93;37.64;101198.69;5570334;32;33273;-58
2022/10/10 13:28:52;;;;;;;4.30;1.62;;;;;;;17.96;38.10;101194.56;5568953;32;34206;-58
2022/10/10 13:32:05;;;;;;;4.53;1.80;;;;;;;17.97;37.46;101193.44;5569448;32;34449;-58
2022/10/10 13:35:18;;;;;;;24.90;2.65;;;;;;;17.96;39.43;101194.56;5570136;32;33359;-58
2022/10/10 13:38:24;;;;;;;14.38;2.08;;;;;;;17.96;37.43;101186.41;5569555;32;34732;-58
2022/10/10 13:41:27;;;;;;;17.77;2.25;;;;;;;18.02;37.35;101183.25;5569686;32;33803;-58
2022/10/10 13:44:50;;;;;;;18.70;2.55;;;;;;;17.99;39.76;101177.66;5569465;32;33658;-58
2022/10/10 13:47:58;;;;;;;7.72;1.55;;;;;;;18.03;36.67;101178.63;5569283;32;34394;-58
2022/10/10 13:51:09;;;;;;;3.25;1.62;;;;;;;17.98;37.97;101174.16;5569838;32;33862;-58
2022/10/10 13:54:34;;;;;;;7.03;2.17;;;;;;;17.96;36.16;101164.72;5570017;32;34329;-58
2022/10/10 13:57:39;;;;;;;6.12;2.10;;;;;;;18.03;36.03;101160.44;5569655;32;33647;-58
2022/10/10 14:00:41;;;;;;;5.75;1.70;;;;;;;17.96;37.97;101160.09;5569391;32;34260;-58
2022/10/10 14:03:49;;;;;;;3.78;1.67;;;;;;;17.92;37.64;101171.88;5569802;32;33616;-58
2022/10/10 14:07:11;;;;;;;6.32;1.75;;;;;;;17.88;39.56;101176.28;5569390;32;34429;-58
2022/10/10 14:10:20;;;;;;;14.18;2.33;;;;;;;17.81;40.96;101166.72;5569082;32;33842;-58
2022/10/10 14:13:23;;;;;;;8.88;2.10;;;;;;;17.81;39.85;101160.47;5569318;32;34566;-58
2022/10/10 14:16:26;;;;;;;11.15;2.22;;;;;;;17.79;38.89;101163.50;5569158;32;33271;-58
2022/10/10 14:19:28;;;;;;;28.40;2.62;;;;;;;17.79;40.36;101152.66;5569415;32;34108;-58
2022/10/10 14:22:31;;;;;;;44.88;3.58;;;;;;;17.82;40.29;101146.59;5569016;32;33652;-58
2022/10/10 14:25:33;;;;;;;25.02;3.30;;;;;;;17.79;41.35;101144.50;5569354;32;33940;-58
2022/10/10 14:28:37;;;;;;;47.13;3.65;;;;;;;17.78;43.09;101142.91;5568854;31;34255;-58
2022/10/10 14:31:41;;;;;;;27.10;2.72;;;;;;;17.68;43.38;101136.91;5569055;32;33867;-58
2022/10/10 14:34:44;;;;;;;22.13;2.87;;;;;;;17.68;41.91;101137.72;5569108;32;34385;-58
2022/10/10 14:37:47;;;;;;;10.15;2.67;;;;;;;17.61;44.38;101145.47;5569218;32;34408;-58
2022/10/10 14:40:50;;;;;;;111.95;10.05;;;;;;;17.59;41.30;101145.78;5568873;32;34214;-58
2022/10/10 14:43:52;;;;;;;17.25;2.35;;;;;;;17.63;42.41;101143.25;5569199;32;33746;-58
2022/10/10 14:46:54;;;;;;;19.30;2.03;;;;;;;17.60;42.41;101138.44;5569064;32;34035;-58
2022/10/10 14:49:56;;;;;;;16.87;2.78;;;;;;;17.65;43.36;101142.94;5569185;32;33511;-58
2022/10/10 14:52:59;;;;;;;23.98;2.85;;;;;;;17.58;43.72;101132.53;5568252;32;33836;-58
2022/10/10 14:56:01;;;;;;;9.75;2.25;;;;;;;17.54;44.12;101136.97;5568163;32;33625;-58
2022/10/10 14:59:03;;;;;;;5.10;2.00;;;;;;;17.49;44.22;101132.47;5569170;32;34366;-58
2022/10/10 15:02:05;;;;;;;18.00;2.42;;;;;;;17.42;44.64;101137.53;5569530;32;34254;-58
2022/10/10 15:05:07;;;;;;;15.23;2.45;;;;;;;17.40;45.22;101134.31;5567873;32;33733;-56
2022/10/10 15:08:13;;;;;;;6.20;1.87;;;;;;;17.38;45.45;101137.34;5568944;32;33584;-55
2022/10/10 15:11:16;;;;;;;10.90;2.08;;;;;;;17.33;44.92;101132.03;5567281;32;33593;-56
2022/10/10 15:14:18;;;;;;;3.00;1.70;;;;;;;17.31;45.17;101128.03;5567434;32;34290;-55
2022/10/10 15:17:20;;;;;;;4.47;1.90;;;;;;;17.28;45.43;101124.03;5568028;32;33362;-55
2022/10/10 15:20:29;;;;;;;4.03;1.80;;;;;;;17.21;46.01;101126.34;5566352;32;34416;-55
2022/10/10 15:23:32;;;;;;;4.80;1.60;;;;;;;17.16;46.52;101128.41;5569244;32;33319;-55
2022/10/10 15:26:34;;;;;;;8.27;1.95;;;;;;;17.14;46.52;101128.69;5567522;32;33828;-56
2022/10/10 15:29:39;;;;;;;7.47;2.00;;;;;;;17.10;46.28;101127.72;5569028;32;34350;-56
2022/10/10 15:32:44;;;;;;;11.60;2.67;;;;;;;17.04;47.63;101127.00;5569033;32;34367;-56
2022/10/10 15:35:58;;;;;;;4.82;2.12;;;;;;;17.08;47.48;101129.91;5569127;32;34329;-56
2022/10/10 15:39:10;;;;;;;4.72;2.08;;;;;;;17.05;47.66;101120.50;5568745;32;33783;-56
2022/10/10 15:42:13;;;;;;;7.20;1.85;;;;;;;16.97;48.83;101123.94;5568753;32;34433;-56
2022/10/10 15:45:23;;;;;;;10.20;2.08;;;;;;;16.92;49.26;101129.47;5568764;32;33656;-55
2022/10/10 15:48:46;;;;;;;7.18;2.42;;;;;;;16.91;48.75;101125.94;5568918;32;33251;-56
